Hachinohemaru — JE3089 — position and weather

sailwx.info

Track history (hours):
 
Tides and Currents Weather Stations Pressure Air Temp Water Temp Dewpoint Dewpoint Depression Visibility Wind Speed Wind Dir Waves Ship Positions

Hachinohemaru

Last reported at 2016-Apr-28 18:33 UTC. Time now 2016-May-01 00:25 UTC.
Position N 34°43' E 139°40'.

Length 168 m; draft 6.5 m.

Type: Cargo ship. MMSI: 431700018.

Date/timePositionNaut miles runAvg speedWind from/ knotsBaromVisibWave heightAir tempDewpointWater temp
2016-Apr-28 18:33N 34°43' E 139°40'1514.8
2016-Apr-28 17:34N 34°49' E 139°56'1515.0
2016-Apr-28 16:34N 34°56' E 140°12'1514.6
2016-Apr-28 15:33N 35°04' E 140°27'1413.3
2016-Apr-28 14:29N 35°16' E 140°38'1212.9
2016-Apr-28 13:33N 35°26' E 140°46'1312.7
2016-Apr-28 12:33N 35°36' E 140°55'1312.6
2016-Apr-28 11:33N 35°49' E 140°56'1313.4
2016-Apr-28 10:34N 35°58' E 140°44'1 0.1
2016-Apr-27 21:32N 35°59' E 140°43'2 1.9
2016-Apr-27 20:31N 36°00' E 140°44'0 0.0
2016-Apr-27 19:30N 36°00' E 140°44'0 0.0
2016-Apr-27 18:30N 36°00' E 140°44'0 0.0
2016-Apr-27 17:30N 36°00' E 140°44'0 0.1
2016-Apr-27 16:30N 36°01' E 140°44'2412.4
2016-Apr-27 14:32N 36°24' E 140°54'  
2016-Apr-25 04:25N 36°05' E 140°45'10 1.4
2016-Apr-24 21:32N 35°56' E 140°41'0 0.0
2016-Apr-24 20:05N 35°56' E 140°41'0 0.0
2016-Apr-24 19:11N 35°56' E 140°41'0 0.0
2016-Apr-24 18:17N 35°56' E 140°41'0 0.1
2016-Apr-24 17:23N 35°56' E 140°41'1 1.5
2016-Apr-24 16:33N 35°57' E 140°42'9 8.8
2016-Apr-24 15:33N 35°52' E 140°51'1312.7
2016-Apr-24 14:33N 35°40' E 140°57'1313.5
2016-Apr-24 13:33N 35°28' E 140°48'1915.0
2016-Apr-24 12:19N 35°12' E 140°36'1515.1
2016-Apr-24 11:20N 35°03' E 140°22'1114.0
2016-Apr-24 10:32N 34°56' E 140°11'1313.2
2016-Apr-24 09:31N 34°49' E 139°57'  
2016-Apr-20 14:33N 34°27' E 138°29'6613.2
2016-Apr-20 09:33N 34°44' E 139°46'1312.6
2016-Apr-20 08:30N 34°51' E 140°01'1213.1
2016-Apr-20 07:33N 34°58' E 140°13'1412.4
2016-Apr-20 06:24N 35°05' E 140°28'1011.5
2016-Apr-20 05:33N 35°13' E 140°35'1313.3
2016-Apr-20 04:33N 35°24' E 140°45'1413.5
2016-Apr-20 03:31N 35°36' E 140°54'1212.5
2016-Apr-20 02:33N 35°48' E 140°55'1313.4
2016-Apr-20 01:33N 35°58' E 140°44'4 0.4
2016-Apr-19 15:26N 35°56' E 140°41'0 0.0
2016-Apr-19 14:32N 35°56' E 140°41'3 2.7
2016-Apr-19 13:33N 35°58' E 140°43'  
Track history (hours):
 
Tides and Currents Weather Stations Pressure Air Temp Water Temp Dewpoint Dewpoint Depression Visibility Wind Speed Wind Dir Waves Ship Positions

Hachinohemaru

Last reported at 2016-Apr-28 18:33 UTC. Time now 2016-May-01 00:25 UTC.
Position N 34°43' E 139°40'.

Length 168 m; draft 6.5 m.

Type: Cargo ship. MMSI: 431700018.

Date/timePositionNaut miles runAvg speedWind from/ knotsBaromVisibWave heightAir tempDewpointWater temp
2016-Apr-28 18:33N 34°43' E 139°40'1514.8
2016-Apr-28 17:34N 34°49' E 139°56'1515.0
2016-Apr-28 16:34N 34°56' E 140°12'1514.6
2016-Apr-28 15:33N 35°04' E 140°27'1413.3
2016-Apr-28 14:29N 35°16' E 140°38'1212.9
2016-Apr-28 13:33N 35°26' E 140°46'1312.7
2016-Apr-28 12:33N 35°36' E 140°55'1312.6
2016-Apr-28 11:33N 35°49' E 140°56'1313.4
2016-Apr-28 10:34N 35°58' E 140°44'1 0.1
2016-Apr-27 21:32N 35°59' E 140°43'2 1.9
2016-Apr-27 20:31N 36°00' E 140°44'0 0.0
2016-Apr-27 19:30N 36°00' E 140°44'0 0.0
2016-Apr-27 18:30N 36°00' E 140°44'0 0.0
2016-Apr-27 17:30N 36°00' E 140°44'0 0.1
2016-Apr-27 16:30N 36°01' E 140°44'2412.4
2016-Apr-27 14:32N 36°24' E 140°54'  
2016-Apr-25 04:25N 36°05' E 140°45'10 1.4
2016-Apr-24 21:32N 35°56' E 140°41'0 0.0
2016-Apr-24 20:05N 35°56' E 140°41'0 0.0
2016-Apr-24 19:11N 35°56' E 140°41'0 0.0
2016-Apr-24 18:17N 35°56' E 140°41'0 0.1
2016-Apr-24 17:23N 35°56' E 140°41'1 1.5
2016-Apr-24 16:33N 35°57' E 140°42'9 8.8
2016-Apr-24 15:33N 35°52' E 140°51'1312.7
2016-Apr-24 14:33N 35°40' E 140°57'1313.5
2016-Apr-24 13:33N 35°28' E 140°48'1915.0
2016-Apr-24 12:19N 35°12' E 140°36'1515.1
2016-Apr-24 11:20N 35°03' E 140°22'1114.0
2016-Apr-24 10:32N 34°56' E 140°11'1313.2
2016-Apr-24 09:31N 34°49' E 139°57'  
2016-Apr-20 14:33N 34°27' E 138°29'6613.2
2016-Apr-20 09:33N 34°44' E 139°46'1312.6
2016-Apr-20 08:30N 34°51' E 140°01'1213.1
2016-Apr-20 07:33N 34°58' E 140°13'1412.4
2016-Apr-20 06:24N 35°05' E 140°28'1011.5
2016-Apr-20 05:33N 35°13' E 140°35'1313.3
2016-Apr-20 04:33N 35°24' E 140°45'1413.5
2016-Apr-20 03:31N 35°36' E 140°54'1212.5
2016-Apr-20 02:33N 35°48' E 140°55'1313.4
2016-Apr-20 01:33N 35°58' E 140°44'4 0.4
2016-Apr-19 15:26N 35°56' E 140°41'0 0.0
2016-Apr-19 14:32N 35°56' E 140°41'3 2.7
2016-Apr-19 13:33N 35°58' E 140°43'  

Dump ship's entire track history